sensor_id;sensor_type;location;lat;lon;timestamp;temperature;humidity
19232;DHT22;9750;48.730;10.294;2022-12-24T00:00:03;10.60;99.90
19232;DHT22;9750;48.730;10.294;2022-12-24T00:02:32;10.60;99.90
19232;DHT22;9750;48.730;10.294;2022-12-24T00:04:59;10.50;99.90
19232;DHT22;9750;48.730;10.294;2022-12-24T00:07:27;10.50;99.90
19232;DHT22;9750;48.730;10.294;2022-12-24T00:09:54;10.50;99.90
19232;DHT22;9750;48.730;10.294;2022-12-24T00:12:21;10.50;99.90
19232;DHT22;9750;48.730;10.294;2022-12-24T00:14:49;10.50;99.90
19232;DHT22;9750;48.730;10.294;2022-12-24T00:17:16;10.40;99.90
19232;DHT22;9750;48.730;10.294;2022-12-24T00:19:45;10.40;99.90
19232;DHT22;9750;48.730;10.294;2022-12-24T00:22:12;10.40;99.90
19232;DHT22;9750;48.730;10.294;2022-12-24T00:24:39;10.40;99.90
19232;DHT22;9750;48.730;10.294;2022-12-24T00:27:06;10.40;99.90
19232;DHT22;9750;48.730;10.294;2022-12-24T00:29:34;10.30;99.90
19232;DHT22;9750;48.730;10.294;2022-12-24T00:32:01;10.30;99.90
19232;DHT22;9750;48.730;10.294;2022-12-24T00:34:32;10.30;99.90
19232;DHT22;9750;48.730;10.294;2022-12-24T00:37:01;10.30;99.90
19232;DHT22;9750;48.730;10.294;2022-12-24T00:39:28;10.30;99.90
19232;DHT22;9750;48.730;10.294;2022-12-24T00:41:56;10.30;99.90
19232;DHT22;9750;48.730;10.294;2022-12-24T00:44:23;10.30;99.90
19232;DHT22;9750;48.730;10.294;2022-12-24T00:46:51;10.30;99.90
19232;DHT22;9750;48.730;10.294;2022-12-24T00:49:18;10.30;99.90
19232;DHT22;9750;48.730;10.294;2022-12-24T00:51:45;10.30;99.90
19232;DHT22;9750;48.730;10.294;2022-12-24T00:57:27;10.40;99.90
19232;DHT22;9750;48.730;10.294;2022-12-24T00:59:55;10.40;99.90
19232;DHT22;9750;48.730;10.294;2022-12-24T01:02:22;10.40;99.90
19232;DHT22;9750;48.730;10.294;2022-12-24T01:04:49;10.40;99.90
19232;DHT22;9750;48.730;10.294;2022-12-24T01:07:34;10.30;99.90
19232;DHT22;9750;48.730;10.294;2022-12-24T01:10:02;10.30;99.90
19232;DHT22;9750;48.730;10.294;2022-12-24T01:12:31;10.30;99.90
19232;DHT22;9750;48.730;10.294;2022-12-24T01:14:59;10.30;99.90
19232;DHT22;9750;48.730;10.294;2022-12-24T01:17:26;10.30;99.90
19232;DHT22;9750;48.730;10.294;2022-12-24T01:19:53;10.30;99.90
19232;DHT22;9750;48.730;10.294;2022-12-24T01:22:20;10.30;99.90
19232;DHT22;9750;48.730;10.294;2022-12-24T01:24:48;10.30;99.90
19232;DHT22;9750;48.730;10.294;2022-12-24T01:27:15;10.30;99.90
19232;DHT22;9750;48.730;10.294;2022-12-24T01:29:44;10.30;99.90
19232;DHT22;9750;48.730;10.294;2022-12-24T01:32:11;10.30;99.90
19232;DHT22;9750;48.730;10.294;2022-12-24T01:34:38;10.30;99.90
19232;DHT22;9750;48.730;10.294;2022-12-24T01:37:06;10.20;99.90
19232;DHT22;9750;48.730;10.294;2022-12-24T01:39:33;10.20;99.90
19232;DHT22;9750;48.730;10.294;2022-12-24T01:42:00;10.10;99.90
19232;DHT22;9750;48.730;10.294;2022-12-24T01:44:50;10.10;99.90
19232;DHT22;9750;48.730;10.294;2022-12-24T01:47:20;10.10;99.90
19232;DHT22;9750;48.730;10.294;2022-12-24T01:49:51;10.20;99.90
19232;DHT22;9750;48.730;10.294;2022-12-24T01:52:21;10.10;99.90
19232;DHT22;9750;48.730;10.294;2022-12-24T01:54:52;10.10;99.90
19232;DHT22;9750;48.730;10.294;2022-12-24T01:57:23;10.20;99.90
19232;DHT22;9750;48.730;10.294;2022-12-24T01:59:58;10.20;99.90
19232;DHT22;9750;48.730;10.294;2022-12-24T02:02:27;10.20;99.90
19232;DHT22;9750;48.730;10.294;2022-12-24T02:04:58;10.20;99.90
19232;DHT22;9750;48.730;10.294;2022-12-24T02:07:28;10.20;99.90
19232;DHT22;9750;48.730;10.294;2022-12-24T02:09:57;10.20;99.90
19232;DHT22;9750;48.730;10.294;2022-12-24T02:12:27;10.20;99.90
19232;DHT22;9750;48.730;10.294;2022-12-24T02:14:56;10.20;99.90
19232;DHT22;9750;48.730;10.294;2022-12-24T02:17:29;10.20;99.90
19232;DHT22;9750;48.730;10.294;2022-12-24T02:26:17;10.20;99.90
19232;DHT22;9750;48.730;10.294;2022-12-24T02:29:13;10.30;99.90
19232;DHT22;9750;48.730;10.294;2022-12-24T02:31:49;10.30;99.90
19232;DHT22;9750;48.730;10.294;2022-12-24T02:34:22;10.30;99.90
19232;DHT22;9750;48.730;10.294;2022-12-24T02:36:56;10.30;99.90
19232;DHT22;9750;48.730;10.294;2022-12-24T02:39:28;10.30;99.90
19232;DHT22;9750;48.730;10.294;2022-12-24T02:42:02;10.30;99.90
19232;DHT22;9750;48.730;10.294;2022-12-24T02:44:38;10.30;99.90
19232;DHT22;9750;48.730;10.294;2022-12-24T02:47:09;10.20;99.90
19232;DHT22;9750;48.730;10.294;2022-12-24T02:49:37;10.20;99.90
19232;DHT22;9750;48.730;10.294;2022-12-24T02:52:04;10.20;99.90
19232;DHT22;9750;48.730;10.294;2022-12-24T02:54:32;10.10;99.90
19232;DHT22;9750;48.730;10.294;2022-12-24T02:57:07;10.10;99.90
19232;DHT22;9750;48.730;10.294;2022-12-24T02:59:56;10.10;99.90
19232;DHT22;9750;48.730;10.294;2022-12-24T03:02:44;10.10;99.90
19232;DHT22;9750;48.730;10.294;2022-12-24T03:05:19;10.10;99.90
19232;DHT22;9750;48.730;10.294;2022-12-24T03:07:55;10.10;99.90
19232;DHT22;9750;48.730;10.294;2022-12-24T03:10:27;10.00;99.90
19232;DHT22;9750;48.730;10.294;2022-12-24T03:13:01;10.00;99.90
19232;DHT22;9750;48.730;10.294;2022-12-24T03:15:30;10.00;99.90
19232;DHT22;9750;48.730;10.294;2022-12-24T03:18:01;9.90;99.90
19232;DHT22;9750;48.730;10.294;2022-12-24T03:20:34;9.90;99.90
19232;DHT22;9750;48.730;10.294;2022-12-24T03:23:03;9.90;99.90
19232;DHT22;9750;48.730;10.294;2022-12-24T03:25:31;9.90;99.90
19232;DHT22;9750;48.730;10.294;2022-12-24T03:28:02;9.80;99.90
19232;DHT22;9750;48.730;10.294;2022-12-24T03:30:31;9.90;99.90
19232;DHT22;9750;48.730;10.294;2022-12-24T03:32:59;9.80;99.90
19232;DHT22;9750;48.730;10.294;2022-12-24T03:35:27;9.80;99.90
19232;DHT22;9750;48.730;10.294;2022-12-24T03:37:54;9.80;99.90
19232;DHT22;9750;48.730;10.294;2022-12-24T03:40:21;9.80;99.90
19232;DHT22;9750;48.730;10.294;2022-12-24T03:42:49;9.80;99.90
19232;DHT22;9750;48.730;10.294;2022-12-24T03:45:17;9.80;99.90
19232;DHT22;9750;48.730;10.294;2022-12-24T03:47:44;9.80;99.90
19232;DHT22;9750;48.730;10.294;2022-12-24T03:50:13;9.70;99.90
19232;DHT22;9750;48.730;10.294;2022-12-24T03:52:40;9.70;99.90
19232;DHT22;9750;48.730;10.294;2022-12-24T03:55:08;9.70;99.90
19232;DHT22;9750;48.730;10.294;2022-12-24T03:57:35;9.70;99.90
19232;DHT22;9750;48.730;10.294;2022-12-24T04:00:03;9.70;99.90
19232;DHT22;9750;48.730;10.294;2022-12-24T04:02:31;9.60;99.90
19232;DHT22;9750;48.730;10.294;2022-12-24T04:04:58;9.60;99.90
19232;DHT22;9750;48.730;10.294;2022-12-24T04:07:27;9.50;99.90
19232;DHT22;9750;48.730;10.294;2022-12-24T04:09:54;9.50;99.90
19232;DHT22;9750;48.730;10.294;2022-12-24T04:12:21;9.50;99.90
19232;DHT22;9750;48.730;10.294;2022-12-24T04:14:48;9.50;99.90
19232;DHT22;9750;48.730;10.294;2022-12-24T04:17:16;9.50;99.90
19232;DHT22;9750;48.730;10.294;2022-12-24T04:19:43;9.40;99.90
19232;DHT22;9750;48.730;10.294;2022-12-24T04:22:11;9.40;99.90
19232;DHT22;9750;48.730;10.294;2022-12-24T04:24:39;9.40;99.90
19232;DHT22;9750;48.730;10.294;2022-12-24T04:27:07;9.40;99.90
19232;DHT22;9750;48.730;10.294;2022-12-24T04:29:34;9.40;99.90
19232;DHT22;9750;48.730;10.294;2022-12-24T04:32:01;9.40;99.90
19232;DHT22;9750;48.730;10.294;2022-12-24T04:34:29;9.40;99.90
19232;DHT22;9750;48.730;10.294;2022-12-24T04:36:57;9.50;99.90
19232;DHT22;9750;48.730;10.294;2022-12-24T04:39:25;9.50;99.90
19232;DHT22;9750;48.730;10.294;2022-12-24T04:41:54;9.50;99.90
19232;DHT22;9750;48.730;10.294;2022-12-24T04:44:21;9.50;99.90
19232;DHT22;9750;48.730;10.294;2022-12-24T04:46:48;9.50;99.90
19232;DHT22;9750;48.730;10.294;2022-12-24T04:49:16;9.50;99.90
19232;DHT22;9750;48.730;10.294;2022-12-24T04:51:43;9.50;99.90
19232;DHT22;9750;48.730;10.294;2022-12-24T04:54:10;9.50;99.90
19232;DHT22;9750;48.730;10.294;2022-12-24T04:56:37;9.40;99.90
19232;DHT22;9750;48.730;10.294;2022-12-24T04:59:06;9.50;99.90
19232;DHT22;9750;48.730;10.294;2022-12-24T05:01:33;9.50;99.90
19232;DHT22;9750;48.730;10.294;2022-12-24T05:04:01;9.50;99.90
19232;DHT22;9750;48.730;10.294;2022-12-24T05:06:30;9.50;99.90
19232;DHT22;9750;48.730;10.294;2022-12-24T05:08:58;9.50;99.90
19232;DHT22;9750;48.730;10.294;2022-12-24T05:11:25;9.50;99.90
19232;DHT22;9750;48.730;10.294;2022-12-24T05:13:53;9.60;99.90
19232;DHT22;9750;48.730;10.294;2022-12-24T05:16:22;9.60;99.90
19232;DHT22;9750;48.730;10.294;2022-12-24T05:18:50;9.60;99.90
19232;DHT22;9750;48.730;10.294;2022-12-24T05:21:19;9.60;99.90
19232;DHT22;9750;48.730;10.294;2022-12-24T05:23:47;9.50;99.90
19232;DHT22;9750;48.730;10.294;2022-12-24T05:26:34;9.60;99.90
19232;DHT22;9750;48.730;10.294;2022-12-24T05:29:06;9.60;99.90
19232;DHT22;9750;48.730;10.294;2022-12-24T05:31:35;9.60;99.90
19232;DHT22;9750;48.730;10.294;2022-12-24T05:34:04;9.60;99.90
19232;DHT22;9750;48.730;10.294;2022-12-24T05:36:31;9.60;99.90
19232;DHT22;9750;48.730;10.294;2022-12-24T05:38:59;9.60;99.90
19232;DHT22;9750;48.730;10.294;2022-12-24T05:41:26;9.60;99.90
19232;DHT22;9750;48.730;10.294;2022-12-24T05:43:54;9.70;99.90
19232;DHT22;9750;48.730;10.294;2022-12-24T05:46:23;9.70;99.90
19232;DHT22;9750;48.730;10.294;2022-12-24T05:48:52;9.70;99.90
19232;DHT22;9750;48.730;10.294;2022-12-24T05:51:21;9.70;99.90
19232;DHT22;9750;48.730;10.294;2022-12-24T05:53:50;9.60;99.90
19232;DHT22;9750;48.730;10.294;2022-12-24T05:56:19;9.70;99.90
19232;DHT22;9750;48.730;10.294;2022-12-24T05:58:47;9.60;99.90
19232;DHT22;9750;48.730;10.294;2022-12-24T06:01:15;9.70;99.90
19232;DHT22;9750;48.730;10.294;2022-12-24T06:03:42;9.70;99.90
19232;DHT22;9750;48.730;10.294;2022-12-24T06:06:12;9.70;99.90
19232;DHT22;9750;48.730;10.294;2022-12-24T06:08:40;9.70;99.90
19232;DHT22;9750;48.730;10.294;2022-12-24T06:11:09;9.70;99.90
19232;DHT22;9750;48.730;10.294;2022-12-24T06:13:38;9.60;99.90
19232;DHT22;9750;48.730;10.294;2022-12-24T06:16:07;9.60;99.90
19232;DHT22;9750;48.730;10.294;2022-12-24T06:18:35;9.60;99.90
19232;DHT22;9750;48.730;10.294;2022-12-24T06:21:04;9.60;99.90
19232;DHT22;9750;48.730;10.294;2022-12-24T06:27:09;9.60;99.90
19232;DHT22;9750;48.730;10.294;2022-12-24T06:29:36;9.50;99.90
19232;DHT22;9750;48.730;10.294;2022-12-24T06:32:03;9.60;99.90
19232;DHT22;9750;48.730;10.294;2022-12-24T06:34:31;9.50;99.90
19232;DHT22;9750;48.730;10.294;2022-12-24T06:36:58;9.50;99.90
19232;DHT22;9750;48.730;10.294;2022-12-24T06:39:25;9.50;99.90
19232;DHT22;9750;48.730;10.294;2022-12-24T06:41:52;9.40;99.90
19232;DHT22;9750;48.730;10.294;2022-12-24T06:44:21;9.30;99.90
19232;DHT22;9750;48.730;10.294;2022-12-24T06:46:49;9.30;99.90
19232;DHT22;9750;48.730;10.294;2022-12-24T06:49:16;9.30;99.90
19232;DHT22;9750;48.730;10.294;2022-12-24T06:51:43;9.30;99.90
19232;DHT22;9750;48.730;10.294;2022-12-24T06:54:10;9.20;99.90
19232;DHT22;9750;48.730;10.294;2022-12-24T06:56:38;9.20;99.90
19232;DHT22;9750;48.730;10.294;2022-12-24T06:59:05;9.10;99.90
19232;DHT22;9750;48.730;10.294;2022-12-24T07:01:34;9.10;99.90
19232;DHT22;9750;48.730;10.294;2022-12-24T07:04:38;9.10;99.90
19232;DHT22;9750;48.730;10.294;2022-12-24T07:07:05;9.00;99.90
19232;DHT22;9750;48.730;10.294;2022-12-24T07:09:32;9.00;99.90
19232;DHT22;9750;48.730;10.294;2022-12-24T07:11:59;9.00;99.90
19232;DHT22;9750;48.730;10.294;2022-12-24T07:14:27;8.90;99.90
19232;DHT22;9750;48.730;10.294;2022-12-24T07:16:55;8.90;99.90
19232;DHT22;9750;48.730;10.294;2022-12-24T07:19:24;8.90;99.90
19232;DHT22;9750;48.730;10.294;2022-12-24T07:21:51;8.90;99.90
19232;DHT22;9750;48.730;10.294;2022-12-24T07:24:18;8.80;99.90
19232;DHT22;9750;48.730;10.294;2022-12-24T07:26:46;8.80;99.90
19232;DHT22;9750;48.730;10.294;2022-12-24T07:29:13;8.80;99.90
19232;DHT22;9750;48.730;10.294;2022-12-24T07:31:41;8.80;99.90
19232;DHT22;9750;48.730;10.294;2022-12-24T07:34:09;8.80;99.90
19232;DHT22;9750;48.730;10.294;2022-12-24T07:36:37;8.80;99.90
19232;DHT22;9750;48.730;10.294;2022-12-24T07:39:04;8.80;99.90
19232;DHT22;9750;48.730;10.294;2022-12-24T07:41:31;8.70;99.90
19232;DHT22;9750;48.730;10.294;2022-12-24T07:43:59;8.70;99.90
19232;DHT22;9750;48.730;10.294;2022-12-24T07:46:27;8.80;99.90
19232;DHT22;9750;48.730;10.294;2022-12-24T07:48:54;8.70;99.90
19232;DHT22;9750;48.730;10.294;2022-12-24T07:51:23;8.80;99.90
19232;DHT22;9750;48.730;10.294;2022-12-24T07:53:51;8.80;99.90
19232;DHT22;9750;48.730;10.294;2022-12-24T07:56:18;8.80;99.90
19232;DHT22;9750;48.730;10.294;2022-12-24T07:58:45;8.90;99.90
19232;DHT22;9750;48.730;10.294;2022-12-24T08:01:13;8.90;99.90
19232;DHT22;9750;48.730;10.294;2022-12-24T08:03:40;8.90;99.90
19232;DHT22;9750;48.730;10.294;2022-12-24T08:06:08;8.90;99.90
19232;DHT22;9750;48.730;10.294;2022-12-24T08:08:37;9.00;99.90
19232;DHT22;9750;48.730;10.294;2022-12-24T08:11:05;8.90;99.90
19232;DHT22;9750;48.730;10.294;2022-12-24T08:13:33;9.00;99.90
19232;DHT22;9750;48.730;10.294;2022-12-24T08:16:00;9.00;99.90
19232;DHT22;9750;48.730;10.294;2022-12-24T08:18:28;9.00;99.90
19232;DHT22;9750;48.730;10.294;2022-12-24T08:20:55;9.10;99.90
19232;DHT22;9750;48.730;10.294;2022-12-24T08:23:22;9.10;99.90
19232;DHT22;9750;48.730;10.294;2022-12-24T08:25:51;9.10;99.90
19232;DHT22;9750;48.730;10.294;2022-12-24T08:28:19;9.10;99.90
19232;DHT22;9750;48.730;10.294;2022-12-24T08:30:47;9.10;99.90
19232;DHT22;9750;48.730;10.294;2022-12-24T08:33:15;9.10;99.90
19232;DHT22;9750;48.730;10.294;2022-12-24T08:35:47;9.10;99.90
19232;DHT22;9750;48.730;10.294;2022-12-24T08:38:14;9.10;99.90
19232;DHT22;9750;48.730;10.294;2022-12-24T08:40:42;9.20;99.90
19232;DHT22;9750;48.730;10.294;2022-12-24T08:43:24;9.20;99.90
19232;DHT22;9750;48.730;10.294;2022-12-24T08:45:51;9.20;99.90
19232;DHT22;9750;48.730;10.294;2022-12-24T08:48:19;9.20;99.90
19232;DHT22;9750;48.730;10.294;2022-12-24T08:50:46;9.20;99.90
19232;DHT22;9750;48.730;10.294;2022-12-24T08:53:13;9.20;99.90
19232;DHT22;9750;48.730;10.294;2022-12-24T08:55:41;9.30;99.90
19232;DHT22;9750;48.730;10.294;2022-12-24T08:58:08;9.30;99.90
19232;DHT22;9750;48.730;10.294;2022-12-24T09:00:37;9.30;99.90
19232;DHT22;9750;48.730;10.294;2022-12-24T09:03:04;9.40;99.90
19232;DHT22;9750;48.730;10.294;2022-12-24T09:05:31;9.40;99.90
19232;DHT22;9750;48.730;10.294;2022-12-24T09:07:59;9.40;99.90
19232;DHT22;9750;48.730;10.294;2022-12-24T09:10:26;9.40;99.90
19232;DHT22;9750;48.730;10.294;2022-12-24T09:12:53;9.40;99.90
19232;DHT22;9750;48.730;10.294;2022-12-24T09:15:21;9.40;99.90
19232;DHT22;9750;48.730;10.294;2022-12-24T09:17:49;9.40;99.90
19232;DHT22;9750;48.730;10.294;2022-12-24T09:20:17;9.40;99.90
19232;DHT22;9750;48.730;10.294;2022-12-24T09:22:44;9.30;99.90
19232;DHT22;9750;48.730;10.294;2022-12-24T09:25:12;9.30;99.90
19232;DHT22;9750;48.730;10.294;2022-12-24T09:27:39;9.30;99.90
19232;DHT22;9750;48.730;10.294;2022-12-24T09:30:07;9.30;99.90
19232;DHT22;9750;48.730;10.294;2022-12-24T09:32:34;9.30;99.90
19232;DHT22;9750;48.730;10.294;2022-12-24T09:35:04;9.30;99.90
19232;DHT22;9750;48.730;10.294;2022-12-24T09:37:31;9.30;99.90
19232;DHT22;9750;48.730;10.294;2022-12-24T09:39:59;9.30;99.90
19232;DHT22;9750;48.730;10.294;2022-12-24T09:42:32;9.30;99.90
19232;DHT22;9750;48.730;10.294;2022-12-24T09:45:07;9.30;99.90
19232;DHT22;9750;48.730;10.294;2022-12-24T09:47:40;9.40;99.90
19232;DHT22;9750;48.730;10.294;2022-12-24T09:50:26;9.40;99.90
19232;DHT22;9750;48.730;10.294;2022-12-24T09:52:55;9.50;99.90
19232;DHT22;9750;48.730;10.294;2022-12-24T09:55:27;9.50;99.90
19232;DHT22;9750;48.730;10.294;2022-12-24T09:57:57;9.50;99.90
19232;DHT22;9750;48.730;10.294;2022-12-24T10:00:27;9.60;99.90
19232;DHT22;9750;48.730;10.294;2022-12-24T10:02:55;9.70;99.90
19232;DHT22;9750;48.730;10.294;2022-12-24T10:05:32;9.80;99.90
19232;DHT22;9750;48.730;10.294;2022-12-24T10:08:09;9.90;99.90
19232;DHT22;9750;48.730;10.294;2022-12-24T10:10:47;10.00;99.90
19232;DHT22;9750;48.730;10.294;2022-12-24T10:13:26;9.90;99.90
19232;DHT22;9750;48.730;10.294;2022-12-24T10:16:00;9.90;99.90
19232;DHT22;9750;48.730;10.294;2022-12-24T10:18:34;9.90;99.90
19232;DHT22;9750;48.730;10.294;2022-12-24T10:21:11;9.90;99.90
19232;DHT22;9750;48.730;10.294;2022-12-24T10:23:44;9.90;99.90
19232;DHT22;9750;48.730;10.294;2022-12-24T10:26:16;10.00;99.90
19232;DHT22;9750;48.730;10.294;2022-12-24T10:28:49;10.10;99.90
19232;DHT22;9750;48.730;10.294;2022-12-24T10:31:19;10.20;99.90
19232;DHT22;9750;48.730;10.294;2022-12-24T10:34:06;10.20;99.90
19232;DHT22;9750;48.730;10.294;2022-12-24T10:36:40;10.30;99.90
19232;DHT22;9750;48.730;10.294;2022-12-24T10:39:15;10.30;99.90
19232;DHT22;9750;48.730;10.294;2022-12-24T10:41:43;10.40;99.90
19232;DHT22;9750;48.730;10.294;2022-12-24T10:44:15;10.40;99.90
19232;DHT22;9750;48.730;10.294;2022-12-24T10:46:45;10.50;99.90
19232;DHT22;9750;48.730;10.294;2022-12-24T10:49:14;10.50;99.90
19232;DHT22;9750;48.730;10.294;2022-12-24T10:51:48;10.50;99.90
19232;DHT22;9750;48.730;10.294;2022-12-24T10:54:18;10.50;99.90
19232;DHT22;9750;48.730;10.294;2022-12-24T10:56:47;10.50;99.90
19232;DHT22;9750;48.730;10.294;2022-12-24T10:59:25;10.50;99.90
19232;DHT22;9750;48.730;10.294;2022-12-24T11:01:56;10.40;99.90
19232;DHT22;9750;48.730;10.294;2022-12-24T11:04:25;10.40;99.90
19232;DHT22;9750;48.730;10.294;2022-12-24T11:06:56;10.50;99.90
19232;DHT22;9750;48.730;10.294;2022-12-24T11:09:26;10.50;99.90
19232;DHT22;9750;48.730;10.294;2022-12-24T11:11:54;10.40;99.90
19232;DHT22;9750;48.730;10.294;2022-12-24T11:14:22;10.40;99.90
19232;DHT22;9750;48.730;10.294;2022-12-24T11:16:52;10.30;99.90
19232;DHT22;9750;48.730;10.294;2022-12-24T11:19:27;10.30;99.90
19232;DHT22;9750;48.730;10.294;2022-12-24T11:22:04;10.30;99.90
19232;DHT22;9750;48.730;10.294;2022-12-24T11:24:33;10.30;99.90
19232;DHT22;9750;48.730;10.294;2022-12-24T11:27:27;10.30;99.90
19232;DHT22;9750;48.730;10.294;2022-12-24T11:30:18;10.30;99.90
19232;DHT22;9750;48.730;10.294;2022-12-24T11:32:47;10.30;99.90
19232;DHT22;9750;48.730;10.294;2022-12-24T11:35:17;10.30;99.90
19232;DHT22;9750;48.730;10.294;2022-12-24T11:37:48;10.30;99.90
19232;DHT22;9750;48.730;10.294;2022-12-24T11:40:20;10.30;99.90
19232;DHT22;9750;48.730;10.294;2022-12-24T11:42:48;10.40;99.90
19232;DHT22;9750;48.730;10.294;2022-12-24T11:45:21;10.40;99.90
19232;DHT22;9750;48.730;10.294;2022-12-24T11:47:50;10.50;99.90
19232;DHT22;9750;48.730;10.294;2022-12-24T11:50:26;10.50;99.90
19232;DHT22;9750;48.730;10.294;2022-12-24T11:53:02;10.50;99.90
19232;DHT22;9750;48.730;10.294;2022-12-24T11:55:41;10.60;99.90
19232;DHT22;9750;48.730;10.294;2022-12-24T11:58:22;10.70;99.90
19232;DHT22;9750;48.730;10.294;2022-12-24T12:00:56;10.80;99.90
19232;DHT22;9750;48.730;10.294;2022-12-24T12:06:37;11.00;99.90
19232;DHT22;9750;48.730;10.294;2022-12-24T12:09:12;11.10;99.90
19232;DHT22;9750;48.730;10.294;2022-12-24T12:11:43;11.10;99.90
19232;DHT22;9750;48.730;10.294;2022-12-24T12:14:16;11.10;99.90
19232;DHT22;9750;48.730;10.294;2022-12-24T12:16:49;11.10;99.90
19232;DHT22;9750;48.730;10.294;2022-12-24T12:19:32;11.10;99.90
19232;DHT22;9750;48.730;10.294;2022-12-24T12:22:05;11.10;99.90
19232;DHT22;9750;48.730;10.294;2022-12-24T12:24:36;11.00;99.90
19232;DHT22;9750;48.730;10.294;2022-12-24T12:27:12;11.10;99.90
19232;DHT22;9750;48.730;10.294;2022-12-24T12:29:48;11.10;99.90
19232;DHT22;9750;48.730;10.294;2022-12-24T12:32:24;11.20;99.90
19232;DHT22;9750;48.730;10.294;2022-12-24T12:35:00;11.10;99.90
19232;DHT22;9750;48.730;10.294;2022-12-24T12:37:33;11.00;99.90
19232;DHT22;9750;48.730;10.294;2022-12-24T12:40:12;11.00;99.90
19232;DHT22;9750;48.730;10.294;2022-12-24T12:42:44;11.00;99.90
19232;DHT22;9750;48.730;10.294;2022-12-24T12:45:38;11.00;99.90
19232;DHT22;9750;48.730;10.294;2022-12-24T12:48:27;11.00;99.90
19232;DHT22;9750;48.730;10.294;2022-12-24T12:51:07;11.10;99.90
19232;DHT22;9750;48.730;10.294;2022-12-24T12:53:52;11.20;99.90
19232;DHT22;9750;48.730;10.294;2022-12-24T12:56:29;11.10;99.90
19232;DHT22;9750;48.730;10.294;2022-12-24T12:59:01;11.20;99.90
19232;DHT22;9750;48.730;10.294;2022-12-24T13:01:39;11.20;99.90
19232;DHT22;9750;48.730;10.294;2022-12-24T13:07:32;11.20;99.90
19232;DHT22;9750;48.730;10.294;2022-12-24T13:10:32;11.10;99.90
19232;DHT22;9750;48.730;10.294;2022-12-24T13:13:31;11.00;99.90
19232;DHT22;9750;48.730;10.294;2022-12-24T13:19:03;11.00;99.90
19232;DHT22;9750;48.730;10.294;2022-12-24T13:21:32;11.00;99.90
19232;DHT22;9750;48.730;10.294;2022-12-24T13:24:13;11.00;99.90
19232;DHT22;9750;48.730;10.294;2022-12-24T13:26:41;11.10;99.90
19232;DHT22;9750;48.730;10.294;2022-12-24T13:29:40;11.10;99.90
19232;DHT22;9750;48.730;10.294;2022-12-24T13:32:48;11.10;99.90
19232;DHT22;9750;48.730;10.294;2022-12-24T13:35:36;11.10;99.90
19232;DHT22;9750;48.730;10.294;2022-12-24T13:38:29;11.10;99.90
19232;DHT22;9750;48.730;10.294;2022-12-24T13:41:49;11.00;99.90
19232;DHT22;9750;48.730;10.294;2022-12-24T13:44:19;11.00;99.90
19232;DHT22;9750;48.730;10.294;2022-12-24T13:46:50;11.00;99.90
19232;DHT22;9750;48.730;10.294;2022-12-24T13:49:26;11.10;99.90
19232;DHT22;9750;48.730;10.294;2022-12-24T13:55:05;11.00;99.90
19232;DHT22;9750;48.730;10.294;2022-12-24T13:57:36;11.00;99.90
19232;DHT22;9750;48.730;10.294;2022-12-24T14:00:07;11.00;99.90
19232;DHT22;9750;48.730;10.294;2022-12-24T14:02:52;10.90;99.90
19232;DHT22;9750;48.730;10.294;2022-12-24T14:05:26;10.90;99.90
19232;DHT22;9750;48.730;10.294;2022-12-24T14:07:56;10.90;99.90
19232;DHT22;9750;48.730;10.294;2022-12-24T14:10:29;10.90;99.90
19232;DHT22;9750;48.730;10.294;2022-12-24T14:12:58;10.90;99.90
19232;DHT22;9750;48.730;10.294;2022-12-24T14:16:00;10.90;99.90
19232;DHT22;9750;48.730;10.294;2022-12-24T14:18:28;10.80;99.90
19232;DHT22;9750;48.730;10.294;2022-12-24T14:20:59;10.80;99.90
19232;DHT22;9750;48.730;10.294;2022-12-24T14:23:42;10.80;99.90
19232;DHT22;9750;48.730;10.294;2022-12-24T14:26:14;10.80;99.90
19232;DHT22;9750;48.730;10.294;2022-12-24T14:28:47;10.80;99.90
19232;DHT22;9750;48.730;10.294;2022-12-24T14:31:17;10.80;99.90
19232;DHT22;9750;48.730;10.294;2022-12-24T14:33:45;10.70;99.90
19232;DHT22;9750;48.730;10.294;2022-12-24T14:36:15;10.70;99.90
19232;DHT22;9750;48.730;10.294;2022-12-24T14:38:44;10.70;99.90
19232;DHT22;9750;48.730;10.294;2022-12-24T14:41:25;10.70;99.90
19232;DHT22;9750;48.730;10.294;2022-12-24T14:44:03;10.70;99.90
19232;DHT22;9750;48.730;10.294;2022-12-24T14:46:38;10.70;99.90
19232;DHT22;9750;48.730;10.294;2022-12-24T14:49:15;10.70;99.90
19232;DHT22;9750;48.730;10.294;2022-12-24T14:51:52;10.70;99.90
19232;DHT22;9750;48.730;10.294;2022-12-24T14:54:40;10.70;99.90
19232;DHT22;9750;48.730;10.294;2022-12-24T14:57:13;10.60;99.90
19232;DHT22;9750;48.730;10.294;2022-12-24T14:59:47;10.60;99.90
19232;DHT22;9750;48.730;10.294;2022-12-24T15:02:41;10.60;99.90
19232;DHT22;9750;48.730;10.294;2022-12-24T15:05:14;10.60;99.90
19232;DHT22;9750;48.730;10.294;2022-12-24T15:07:45;10.60;99.90
19232;DHT22;9750;48.730;10.294;2022-12-24T15:10:28;10.50;99.90
19232;DHT22;9750;48.730;10.294;2022-12-24T15:12:57;10.50;99.90
19232;DHT22;9750;48.730;10.294;2022-12-24T15:15:29;10.50;99.90
19232;DHT22;9750;48.730;10.294;2022-12-24T15:17:57;10.50;99.90
19232;DHT22;9750;48.730;10.294;2022-12-24T15:20:26;10.40;99.90
19232;DHT22;9750;48.730;10.294;2022-12-24T15:22:56;10.30;99.90
19232;DHT22;9750;48.730;10.294;2022-12-24T15:25:26;10.20;99.90
19232;DHT22;9750;48.730;10.294;2022-12-24T15:27:54;10.10;99.90
19232;DHT22;9750;48.730;10.294;2022-12-24T15:30:24;10.10;99.90
19232;DHT22;9750;48.730;10.294;2022-12-24T15:32:55;10.00;99.90
19232;DHT22;9750;48.730;10.294;2022-12-24T15:35:42;10.00;99.90
19232;DHT22;9750;48.730;10.294;2022-12-24T15:38:26;10.00;99.90
19232;DHT22;9750;48.730;10.294;2022-12-24T15:40:56;9.90;99.90
19232;DHT22;9750;48.730;10.294;2022-12-24T15:43:24;9.90;99.90
19232;DHT22;9750;48.730;10.294;2022-12-24T15:45:52;9.80;99.90
19232;DHT22;9750;48.730;10.294;2022-12-24T15:48:23;9.70;99.90
19232;DHT22;9750;48.730;10.294;2022-12-24T15:50:52;9.70;99.90
19232;DHT22;9750;48.730;10.294;2022-12-24T15:53:23;9.60;99.90
19232;DHT22;9750;48.730;10.294;2022-12-24T15:56:06;9.60;99.90
19232;DHT22;9750;48.730;10.294;2022-12-24T15:58:36;9.50;99.90
19232;DHT22;9750;48.730;10.294;2022-12-24T16:01:26;9.50;99.90
19232;DHT22;9750;48.730;10.294;2022-12-24T16:03:57;9.40;99.90
19232;DHT22;9750;48.730;10.294;2022-12-24T16:06:25;9.50;99.90
19232;DHT22;9750;48.730;10.294;2022-12-24T16:08:54;9.50;99.90
19232;DHT22;9750;48.730;10.294;2022-12-24T16:11:24;9.50;99.90
19232;DHT22;9750;48.730;10.294;2022-12-24T16:14:02;9.50;99.90
19232;DHT22;9750;48.730;10.294;2022-12-24T16:16:33;9.50;99.90
19232;DHT22;9750;48.730;10.294;2022-12-24T16:19:03;9.40;99.90
19232;DHT22;9750;48.730;10.294;2022-12-24T16:21:34;9.50;99.90
19232;DHT22;9750;48.730;10.294;2022-12-24T16:24:05;9.50;99.90
19232;DHT22;9750;48.730;10.294;2022-12-24T16:26:33;9.40;99.90
19232;DHT22;9750;48.730;10.294;2022-12-24T16:29:02;9.40;99.90